createdAt,value
2023-03-03T00:01:18.403Z,23.55
2023-03-03T00:03:45.652Z,22.17
2023-03-03T00:06:14.447Z,21.60
2023-03-03T00:08:41.780Z,21.88
2023-03-03T00:11:09.533Z,22.50
2023-03-03T00:13:47.406Z,20.83
2023-03-03T00:16:25.163Z,20.02
2023-03-03T00:18:53.528Z,22.40
2023-03-03T00:21:29.647Z,21.27
2023-03-03T00:24:13.024Z,20.60
2023-03-03T00:26:42.145Z,22.25
2023-03-03T00:29:37.243Z,20.63
2023-03-03T00:32:16.502Z,21.13
2023-03-03T00:34:44.858Z,20.80
2023-03-03T00:37:30.957Z,21.08
2023-03-03T00:40:38.150Z,19.88
2023-03-03T00:43:23.278Z,19.77
2023-03-03T00:45:52.756Z,20.17
2023-03-03T00:48:24.554Z,19.13
2023-03-03T00:50:54.763Z,20.17
2023-03-03T00:53:24.251Z,19.70
2023-03-03T00:55:53.308Z,19.55
2023-03-03T00:58:21.999Z,18.45
2023-03-03T01:00:54.723Z,20.15
2023-03-03T01:03:26.952Z,18.08
2023-03-03T01:05:55.144Z,15.93
2023-03-03T01:08:24.588Z,15.15
2023-03-03T01:10:54.607Z,14.52
2023-03-03T01:13:26.075Z,14.95
2023-03-03T01:15:53.892Z,14.15
2023-03-03T01:18:21.412Z,13.13
2023-03-03T01:20:48.549Z,13.95
2023-03-03T01:23:15.594Z,13.07
2023-03-03T01:25:42.799Z,12.90
2023-03-03T01:28:10.081Z,12.23
2023-03-03T01:30:37.572Z,13.25
2023-03-03T01:33:04.917Z,12.45
2023-03-03T01:35:32.058Z,11.30
2023-03-03T01:37:59.493Z,11.23
2023-03-03T01:40:30.056Z,11.52
2023-03-03T01:43:00.040Z,10.70
2023-03-03T01:45:30.705Z,10.93
2023-03-03T01:48:10.593Z,10.27
2023-03-03T01:50:52.184Z,11.02
2023-03-03T01:53:26.739Z,11.10
2023-03-03T01:55:54.477Z,10.98
2023-03-03T01:58:28.076Z,10.80
2023-03-03T02:01:04.790Z,11.70
2023-03-03T02:03:32.425Z,12.35
2023-03-03T02:06:05.036Z,11.75
2023-03-03T02:08:42.795Z,12.50
2023-03-03T02:11:11.519Z,11.88
2023-03-03T02:13:38.501Z,12.02
2023-03-03T02:16:06.582Z,12.70
2023-03-03T02:18:33.945Z,12.10
2023-03-03T02:21:16.156Z,11.25
2023-03-03T02:24:06.141Z,13.38
2023-03-03T02:26:39.203Z,12.48
2023-03-03T02:29:09.330Z,12.68
2023-03-03T02:31:38.948Z,12.73
2023-03-03T02:34:06.501Z,10.77
2023-03-03T02:36:37.702Z,11.27
2023-03-03T02:39:26.596Z,12.68
2023-03-03T02:42:00.744Z,11.52
2023-03-03T02:44:35.049Z,12.93
2023-03-03T02:47:02.659Z,10.90
2023-03-03T02:49:35.708Z,11.35
2023-03-03T02:52:07.678Z,12.13
2023-03-03T02:54:34.895Z,12.40
2023-03-03T02:57:04.188Z,11.15
2023-03-03T02:59:32.204Z,11.32
2023-03-03T03:02:07.494Z,10.70
2023-03-03T03:04:35.669Z,12.10
2023-03-03T03:07:03.619Z,10.48
2023-03-03T03:09:32.799Z,9.57
2023-03-03T03:12:02.732Z,9.85
2023-03-03T03:14:33.305Z,9.23
2023-03-03T03:17:01.568Z,9.73
2023-03-03T03:19:29.604Z,9.30
2023-03-03T03:22:01.313Z,8.70
2023-03-03T03:24:30.021Z,7.72
2023-03-03T03:27:02.545Z,8.52
2023-03-03T03:29:29.813Z,7.00
2023-03-03T03:31:56.839Z,7.22
2023-03-03T03:34:23.786Z,6.63
2023-03-03T03:36:52.191Z,6.50
2023-03-03T03:39:21.236Z,6.43
2023-03-03T03:41:50.684Z,5.72
2023-03-03T03:44:17.963Z,5.78
2023-03-03T03:46:44.973Z,4.95
2023-03-03T03:49:12.037Z,4.80
2023-03-03T03:51:41.581Z,4.28
2023-03-03T03:54:11.911Z,4.95
2023-03-03T03:56:40.251Z,4.10
2023-03-03T03:59:08.545Z,4.85
2023-03-03T04:01:36.770Z,4.38
2023-03-03T04:04:05.193Z,4.00
2023-03-03T04:06:32.714Z,3.33
2023-03-03T04:09:00.888Z,3.67
2023-03-03T04:11:30.048Z,3.90
2023-03-03T04:13:57.246Z,3.92
2023-03-03T04:16:24.442Z,3.80
2023-03-03T04:18:51.906Z,3.72
2023-03-03T04:21:21.605Z,3.53
2023-03-03T04:23:49.842Z,4.22
2023-03-03T04:26:17.666Z,4.47
2023-03-03T04:28:46.219Z,4.38
2023-03-03T04:31:13.342Z,4.65
2023-03-03T04:33:41.169Z,5.10
2023-03-03T04:36:08.856Z,4.63
2023-03-03T04:38:36.532Z,5.03
2023-03-03T04:41:03.890Z,3.95
2023-03-03T04:43:35.136Z,3.67
2023-03-03T04:46:04.841Z,3.80
2023-03-03T04:48:32.302Z,3.75
2023-03-03T04:50:59.982Z,3.70
2023-03-03T04:53:27.416Z,3.47
2023-03-03T04:55:54.870Z,3.33
2023-03-03T04:58:23.030Z,3.35
2023-03-03T05:00:56.473Z,3.42
2023-03-03T05:03:27.357Z,3.28
2023-03-03T05:05:54.938Z,3.53
2023-03-03T05:08:22.281Z,2.83
2023-03-03T05:10:53.509Z,3.28
2023-03-03T05:13:20.896Z,3.28
2023-03-03T05:15:53.064Z,3.13
2023-03-03T05:18:20.841Z,2.90
2023-03-03T05:20:48.698Z,3.10
2023-03-03T05:23:15.846Z,3.03
2023-03-03T05:25:43.007Z,3.10
2023-03-03T05:28:10.665Z,3.47
2023-03-03T05:30:38.372Z,2.92
2023-03-03T05:33:07.007Z,3.05
2023-03-03T05:35:34.494Z,3.42
2023-03-03T05:38:05.481Z,3.70
2023-03-03T05:40:33.460Z,3.60
2023-03-03T05:43:00.921Z,3.38
2023-03-03T05:45:28.199Z,3.10
2023-03-03T05:47:55.386Z,3.35
2023-03-03T05:50:23.616Z,3.28
2023-03-03T05:52:52.372Z,2.65
2023-03-03T05:55:20.118Z,2.97
2023-03-03T05:57:47.126Z,3.10
2023-03-03T06:00:14.857Z,3.25
2023-03-03T06:02:42.666Z,3.30
2023-03-03T06:05:10.945Z,3.42
2023-03-03T06:07:38.033Z,3.45
2023-03-03T06:10:05.782Z,3.63
2023-03-03T06:12:35.363Z,3.35
2023-03-03T06:15:02.456Z,3.38
2023-03-03T06:17:29.524Z,3.38
2023-03-03T06:19:56.762Z,2.95
2023-03-03T06:22:23.685Z,3.22
2023-03-03T06:24:52.826Z,2.78
2023-03-03T06:27:19.954Z,2.83
2023-03-03T06:29:46.917Z,2.40
2023-03-03T06:32:14.026Z,2.38
2023-03-03T06:34:41.280Z,2.80
2023-03-03T06:37:08.495Z,2.28
2023-03-03T06:39:38.974Z,2.13
2023-03-03T06:42:06.347Z,2.25
2023-03-03T06:44:33.472Z,1.70
2023-03-03T06:47:00.523Z,2.10
2023-03-03T06:49:27.544Z,1.92
2023-03-03T06:51:54.606Z,2.08
2023-03-03T06:54:30.355Z,1.50
2023-03-03T06:57:23.244Z,2.33
2023-03-03T06:59:54.061Z,2.20
2023-03-03T07:02:22.744Z,2.63
2023-03-03T07:04:50.162Z,2.08
2023-03-03T07:07:24.884Z,1.90
2023-03-03T07:09:59.959Z,2.10
2023-03-03T07:12:30.832Z,1.75
2023-03-03T07:15:36.582Z,2.03
2023-03-03T07:18:20.448Z,2.33
2023-03-03T07:20:50.636Z,2.55
2023-03-03T07:23:27.456Z,2.60
2023-03-03T07:25:55.112Z,3.05
2023-03-03T07:28:28.311Z,3.90
2023-03-03T07:30:58.359Z,3.45
2023-03-03T07:33:44.166Z,3.50
2023-03-03T07:39:23.160Z,3.35
2023-03-03T07:41:50.119Z,4.93
2023-03-03T07:44:23.865Z,4.25
2023-03-03T07:46:52.151Z,4.75
2023-03-03T07:49:22.136Z,4.88
2023-03-03T07:51:54.742Z,5.68
2023-03-03T07:54:38.223Z,6.68
2023-03-03T07:57:17.745Z,7.70
2023-03-03T08:00:17.059Z,8.68
2023-03-03T08:02:52.237Z,8.20
2023-03-03T08:05:34.798Z,9.18
2023-03-03T08:08:10.157Z,9.88
2023-03-03T08:10:43.600Z,11.88
2023-03-03T08:13:21.626Z,13.98
2023-03-03T08:16:12.011Z,15.02
2023-03-03T08:18:41.064Z,18.33
2023-03-03T08:21:16.715Z,19.70
2023-03-03T08:23:44.832Z,23.65
2023-03-03T08:26:14.113Z,25.55
2023-03-03T08:28:41.447Z,27.60
2023-03-03T08:31:18.324Z,28.73
2023-03-03T08:33:49.494Z,29.90
2023-03-03T08:36:16.809Z,30.95
2023-03-03T08:38:44.201Z,28.95
2023-03-03T08:41:11.670Z,31.30
2023-03-03T08:43:38.756Z,29.50
2023-03-03T08:46:06.841Z,30.85
2023-03-03T08:48:34.372Z,30.67
2023-03-03T08:51:01.952Z,30.10
2023-03-03T08:53:29.158Z,28.02
2023-03-03T08:55:56.908Z,29.10
2023-03-03T08:58:34.718Z,30.42
2023-03-03T09:01:03.398Z,30.15
2023-03-03T09:03:30.733Z,29.73
2023-03-03T09:05:59.158Z,29.65
2023-03-03T09:08:26.171Z,28.83
2023-03-03T09:10:53.192Z,27.55
2023-03-03T09:13:21.040Z,30.77
2023-03-03T09:15:49.535Z,29.30
2023-03-03T09:18:31.640Z,32.33
2023-03-03T09:20:58.919Z,31.25
2023-03-03T09:23:41.733Z,32.85
2023-03-03T09:26:11.715Z,33.05
2023-03-03T09:28:38.668Z,34.92
2023-03-03T09:31:28.151Z,35.20
2023-03-03T09:33:57.988Z,35.35
2023-03-03T09:36:33.524Z,34.95
2023-03-03T09:39:00.744Z,34.33
2023-03-03T09:41:42.668Z,32.08
2023-03-03T09:44:48.640Z,32.75
2023-03-03T09:47:22.630Z,31.17
2023-03-03T09:50:17.697Z,31.23
2023-03-03T09:53:05.898Z,29.73
2023-03-03T09:55:38.988Z,30.20
2023-03-03T09:58:45.938Z,29.88
2023-03-03T10:01:31.853Z,27.73
2023-03-03T10:06:55.163Z,26.88
2023-03-03T10:10:00.365Z,25.40
2023-03-03T10:13:05.159Z,26.83
2023-03-03T10:15:35.467Z,25.95
2023-03-03T10:18:28.826Z,25.80
2023-03-03T10:20:58.958Z,26.30
2023-03-03T10:23:52.004Z,25.50
2023-03-03T10:26:44.828Z,26.17
2023-03-03T10:29:22.058Z,24.77
2023-03-03T10:32:26.061Z,23.02
2023-03-03T10:35:02.909Z,23.00
2023-03-03T10:37:59.059Z,23.08
2023-03-03T10:43:57.908Z,23.73
2023-03-03T10:46:46.507Z,22.00
2023-03-03T10:49:28.204Z,22.75
2023-03-03T10:52:22.489Z,22.40
2023-03-03T10:55:07.550Z,20.48
2023-03-03T10:58:12.562Z,18.95
2023-03-03T11:00:49.830Z,19.67
2023-03-03T11:04:04.502Z,16.38
2023-03-03T11:06:46.450Z,15.20
2023-03-03T11:09:32.368Z,13.35
2023-03-03T11:12:08.812Z,14.30
2023-03-03T11:15:18.510Z,14.02
2023-03-03T11:18:16.005Z,15.27
2023-03-03T11:21:18.020Z,14.63
2023-03-03T11:24:06.227Z,15.98
2023-03-03T11:27:12.656Z,16.48
2023-03-03T11:29:46.286Z,16.13
2023-03-03T11:32:19.372Z,16.70
2023-03-03T11:35:04.606Z,15.38
2023-03-03T11:37:55.726Z,16.35
2023-03-03T11:40:27.930Z,16.45
2023-03-03T11:42:59.098Z,15.98
2023-03-03T11:45:37.744Z,15.43
2023-03-03T11:48:23.592Z,15.50
2023-03-03T11:53:54.966Z,13.53
2023-03-03T11:56:36.654Z,14.35
2023-03-03T11:59:19.744Z,15.00
2023-03-03T12:01:52.835Z,14.20
2023-03-03T12:04:39.210Z,14.80
2023-03-03T12:07:18.527Z,15.20
2023-03-03T12:09:57.276Z,13.40
2023-03-03T12:12:27.769Z,13.70
2023-03-03T12:15:08.528Z,15.00
2023-03-03T12:17:50.865Z,14.30
2023-03-03T12:20:30.020Z,14.23
2023-03-03T12:23:18.709Z,13.93
2023-03-03T12:26:14.124Z,14.10
2023-03-03T12:29:02.291Z,13.63
2023-03-03T12:32:05.885Z,12.75
2023-03-03T12:34:43.063Z,13.38
2023-03-03T12:37:19.083Z,13.43
2023-03-03T12:39:48.977Z,14.05
2023-03-03T12:42:37.731Z,14.07
2023-03-03T12:45:30.966Z,13.13
2023-03-03T12:48:14.742Z,14.00
2023-03-03T12:50:56.192Z,14.85
2023-03-03T12:53:51.428Z,14.32
2023-03-03T12:56:30.879Z,13.55
2023-03-03T12:59:20.861Z,13.85
2023-03-03T13:01:56.800Z,13.35
2023-03-03T13:04:30.029Z,14.60
2023-03-03T13:07:22.373Z,15.00
2023-03-03T13:10:05.082Z,13.75
2023-03-03T13:12:53.907Z,12.68
2023-03-03T13:15:32.779Z,12.45
2023-03-03T13:18:24.630Z,11.18
2023-03-03T13:20:59.585Z,9.60
2023-03-03T13:23:38.375Z,8.95
2023-03-03T13:26:24.952Z,9.05
2023-03-03T13:29:09.807Z,8.60
2023-03-03T13:31:40.996Z,8.35
2023-03-03T13:34:20.373Z,8.05
2023-03-03T13:37:04.606Z,6.35
2023-03-03T13:39:39.972Z,6.50
2023-03-03T13:44:45.967Z,5.43
2023-03-03T13:47:31.325Z,4.47
2023-03-03T13:50:16.541Z,4.38
2023-03-03T13:53:17.762Z,4.97
2023-03-03T13:56:26.779Z,4.85
2023-03-03T13:59:26.213Z,4.85
2023-03-03T14:02:10.464Z,4.38
2023-03-03T14:04:49.696Z,4.50
2023-03-03T14:07:38.126Z,3.97
2023-03-03T14:10:18.455Z,3.30
2023-03-03T14:13:00.031Z,3.28
2023-03-03T14:15:32.085Z,3.08
2023-03-03T14:18:16.448Z,3.08
2023-03-03T14:20:55.500Z,3.47
2023-03-03T14:23:31.427Z,4.10
2023-03-03T14:26:06.980Z,3.05
2023-03-03T14:28:49.835Z,2.70
2023-03-03T14:31:17.149Z,2.47
2023-03-03T14:33:58.383Z,3.10
2023-03-03T14:36:30.433Z,3.05
2023-03-03T14:38:57.660Z,2.70
2023-03-03T14:41:40.873Z,2.67
2023-03-03T14:44:27.981Z,2.85
2023-03-03T14:47:03.287Z,2.85
2023-03-03T14:49:33.347Z,2.60
2023-03-03T14:52:32.792Z,2.05
2023-03-03T14:55:05.299Z,1.90
2023-03-03T14:57:35.765Z,1.65
2023-03-03T15:00:10.775Z,1.88
2023-03-03T15:03:00.221Z,1.60
2023-03-03T15:05:31.824Z,1.40
2023-03-03T15:08:04.878Z,1.10
2023-03-03T15:10:37.418Z,1.48
2023-03-03T15:13:20.010Z,1.83
2023-03-03T15:16:01.342Z,1.83
2023-03-03T15:18:32.860Z,1.13
2023-03-03T15:21:09.968Z,1.70
2023-03-03T15:23:42.928Z,1.75
2023-03-03T15:26:13.326Z,1.05
2023-03-03T15:28:55.465Z,1.15
2023-03-03T15:31:52.204Z,1.52
2023-03-03T15:34:26.903Z,1.60
2023-03-03T15:37:03.078Z,1.55
2023-03-03T15:39:42.131Z,1.40
2023-03-03T15:42:24.319Z,1.42
2023-03-03T15:45:17.848Z,1.33
2023-03-03T15:48:23.039Z,1.60
2023-03-03T15:51:08.829Z,1.65
2023-03-03T15:56:39.772Z,1.42
2023-03-03T15:59:33.365Z,1.58
2023-03-03T16:02:06.889Z,1.40
2023-03-03T16:04:41.790Z,1.15
2023-03-03T16:07:35.840Z,1.60
2023-03-03T16:10:18.762Z,1.20
2023-03-03T16:12:54.774Z,1.30
2023-03-03T16:15:39.820Z,1.40
2023-03-03T16:18:31.210Z,1.17
2023-03-03T16:21:31.854Z,1.75
2023-03-03T16:24:20.362Z,1.33
2023-03-03T16:27:33.058Z,1.25
2023-03-03T16:30:25.502Z,1.45
2023-03-03T16:33:20.193Z,1.17
2023-03-03T16:36:08.983Z,1.40
2023-03-03T16:38:41.726Z,2.20
2023-03-03T16:41:39.779Z,2.28
2023-03-03T16:44:39.801Z,2.83
2023-03-03T16:47:45.260Z,7.35
2023-03-03T16:50:40.330Z,1.90
2023-03-03T16:53:50.395Z,1.20
2023-03-03T16:56:28.472Z,4.85
2023-03-03T16:58:58.491Z,0.93
2023-03-03T17:01:50.559Z,1.48
2023-03-03T17:04:30.191Z,1.05
2023-03-03T17:07:13.013Z,1.02
2023-03-03T17:10:14.494Z,0.90
2023-03-03T17:13:19.779Z,1.05
2023-03-03T17:15:57.292Z,17.17
2023-03-03T17:18:53.067Z,13.00
2023-03-03T17:21:34.408Z,2.40
2023-03-03T17:24:25.004Z,1.25
2023-03-03T17:27:17.203Z,1.80
2023-03-03T17:30:22.523Z,1.10
2023-03-03T17:33:12.685Z,1.48
2023-03-03T17:35:46.525Z,1.13
2023-03-03T17:38:35.136Z,1.58
2023-03-03T17:41:11.369Z,1.00
2023-03-03T17:44:08.557Z,0.95
2023-03-03T17:46:51.770Z,1.42
2023-03-03T17:49:54.451Z,1.70
2023-03-03T17:52:33.729Z,1.10
2023-03-03T17:55:32.317Z,1.50
2023-03-03T17:58:35.125Z,0.93
2023-03-03T18:01:08.440Z,1.58
2023-03-03T18:04:06.734Z,1.08
2023-03-03T18:06:47.581Z,0.80
2023-03-03T18:09:38.935Z,1.13
2023-03-03T18:12:12.025Z,1.50
2023-03-03T18:14:56.364Z,1.42
2023-03-03T18:17:32.534Z,1.25
2023-03-03T18:20:23.017Z,1.13
2023-03-03T18:22:52.410Z,1.45
2023-03-03T18:25:44.279Z,1.30
2023-03-03T18:28:21.100Z,1.50
2023-03-03T18:31:00.084Z,0.95
2023-03-03T18:33:43.961Z,1.00
2023-03-03T18:36:15.607Z,2.00
2023-03-03T18:38:48.028Z,1.17
2023-03-03T18:41:55.454Z,1.63
2023-03-03T18:44:30.963Z,1.70
2023-03-03T18:46:59.122Z,2.13
2023-03-03T18:50:17.740Z,1.27
2023-03-03T18:53:12.890Z,2.00
2023-03-03T18:55:49.226Z,1.45
2023-03-03T18:58:16.215Z,1.73
2023-03-03T19:01:02.248Z,1.50
2023-03-03T19:03:35.354Z,1.25
2023-03-03T19:06:04.594Z,1.90
2023-03-03T19:08:56.371Z,1.98
2023-03-03T19:11:45.240Z,1.90
2023-03-03T19:14:30.449Z,2.20
2023-03-03T19:16:59.647Z,1.50
2023-03-03T19:19:34.972Z,1.67
2023-03-03T19:25:06.477Z,2.22
2023-03-03T19:27:40.533Z,1.67
2023-03-03T19:30:29.318Z,2.03
2023-03-03T19:33:02.468Z,2.80
2023-03-03T19:35:44.463Z,2.30
2023-03-03T19:38:33.027Z,3.28
2023-03-03T19:41:09.000Z,2.28
2023-03-03T19:44:02.481Z,3.38
2023-03-03T19:46:35.583Z,2.22
2023-03-03T19:49:11.954Z,2.75
2023-03-03T19:51:53.394Z,2.70
2023-03-03T19:54:58.252Z,2.80
2023-03-03T19:57:47.418Z,2.83
2023-03-03T20:00:27.296Z,2.13
2023-03-03T20:03:32.138Z,2.90
2023-03-03T20:06:37.085Z,4.13
2023-03-03T20:09:26.771Z,3.10
2023-03-03T20:11:59.641Z,3.25
2023-03-03T20:14:46.045Z,3.15
2023-03-03T20:17:16.269Z,2.47
2023-03-03T20:20:15.796Z,3.40
2023-03-03T20:23:05.308Z,3.15
2023-03-03T20:25:41.054Z,2.88
2023-03-03T20:28:58.890Z,2.63
2023-03-03T20:31:42.639Z,2.60
2023-03-03T20:34:47.513Z,3.05
2023-03-03T20:37:34.895Z,3.65
2023-03-03T20:40:14.323Z,3.13
2023-03-03T20:43:09.069Z,2.88
2023-03-03T20:45:45.201Z,3.42
2023-03-03T20:48:43.066Z,3.28
2023-03-03T20:51:18.265Z,3.63
2023-03-03T20:53:57.948Z,3.20
2023-03-03T20:56:37.053Z,2.78
2023-03-03T20:59:27.324Z,2.83
2023-03-03T21:02:17.765Z,2.60
2023-03-03T21:04:44.926Z,3.40
2023-03-03T21:07:25.279Z,3.05
2023-03-03T21:10:24.438Z,3.72
2023-03-03T21:12:57.376Z,2.40
2023-03-03T21:15:36.346Z,2.85
2023-03-03T21:18:27.741Z,2.80
2023-03-03T21:20:54.960Z,3.53
2023-03-03T21:23:23.209Z,3.38
2023-03-03T21:25:55.242Z,2.55
2023-03-03T21:28:25.452Z,2.50
2023-03-03T21:31:15.140Z,2.40
2023-03-03T21:33:49.808Z,2.58
2023-03-03T21:36:32.218Z,2.90
2023-03-03T21:39:02.262Z,3.22
2023-03-03T21:42:06.559Z,3.20
2023-03-03T21:44:49.916Z,3.20
2023-03-03T21:47:20.469Z,3.30
2023-03-03T21:49:50.295Z,3.05
2023-03-03T21:52:19.553Z,3.80
2023-03-03T21:54:48.606Z,3.33
2023-03-03T21:57:16.008Z,4.00
2023-03-03T21:59:43.474Z,2.88
2023-03-03T22:02:11.424Z,3.78
2023-03-03T22:04:42.329Z,3.35
2023-03-03T22:07:10.171Z,3.17
2023-03-03T22:09:37.621Z,3.03
2023-03-03T22:12:07.425Z,3.15
2023-03-03T22:14:34.809Z,2.90
2023-03-03T22:17:01.972Z,3.50
2023-03-03T22:19:29.351Z,3.05
2023-03-03T22:21:56.422Z,3.00
2023-03-03T22:24:23.377Z,2.63
2023-03-03T22:26:50.451Z,3.47
2023-03-03T22:29:22.736Z,2.15
2023-03-03T22:31:50.713Z,3.22
2023-03-03T22:34:18.018Z,2.95
2023-03-03T22:36:45.574Z,3.42
2023-03-03T22:39:12.600Z,3.72
2023-03-03T22:41:39.686Z,2.67
2023-03-03T22:44:06.715Z,3.55
2023-03-03T22:46:33.813Z,3.58
2023-03-03T22:49:00.872Z,2.90
2023-03-03T22:51:28.108Z,3.78
2023-03-03T22:53:55.032Z,3.58
2023-03-03T22:56:22.255Z,3.53
2023-03-03T22:58:50.053Z,2.70
2023-03-03T23:01:17.528Z,3.85
2023-03-03T23:03:44.582Z,3.35
2023-03-03T23:06:11.877Z,2.63
2023-03-03T23:08:39.073Z,2.88
2023-03-03T23:11:06.224Z,3.28
2023-03-03T23:13:33.493Z,2.75
2023-03-03T23:16:02.939Z,3.75
2023-03-03T23:18:30.295Z,3.42
2023-03-03T23:20:57.482Z,3.28
2023-03-03T23:23:24.693Z,3.13
2023-03-03T23:25:51.775Z,3.10
2023-03-03T23:28:19.386Z,3.10
2023-03-03T23:30:46.446Z,3.88
2023-03-03T23:33:13.508Z,2.67
2023-03-03T23:35:40.729Z,2.17
2023-03-03T23:38:07.899Z,3.20
2023-03-03T23:40:35.016Z,3.03
2023-03-03T23:43:02.021Z,3.15
2023-03-03T23:45:29.090Z,3.03
2023-03-03T23:47:56.500Z,3.17
2023-03-03T23:50:23.632Z,3.05
2023-03-03T23:52:50.659Z,2.38
2023-03-03T23:55:18.006Z,3.60
2023-03-03T23:57:45.029Z,2.70
